sensor_id;sensor_type;location;lat;lon;timestamp;pressure;altitude;pressure_sealevel;temperature;humidity
48053;BME280;33824;51.600;5.718;2023-07-13T00:02:21;101244.84;;;16.31;80.79
48053;BME280;33824;51.600;5.718;2023-07-13T00:04:47;101249.19;;;16.32;80.31
48053;BME280;33824;51.600;5.718;2023-07-13T00:07:13;101256.22;;;16.27;80.95
48053;BME280;33824;51.600;5.718;2023-07-13T00:09:40;101255.38;;;16.26;80.88
48053;BME280;33824;51.600;5.718;2023-07-13T00:12:22;101257.19;;;16.13;81.72
48053;BME280;33824;51.600;5.718;2023-07-13T00:14:48;101246.28;;;16.27;81.16
48053;BME280;33824;51.600;5.718;2023-07-13T00:17:15;101249.59;;;16.29;80.47
48053;BME280;33824;51.600;5.718;2023-07-13T00:19:41;101248.13;;;16.27;80.59
48053;BME280;33824;51.600;5.718;2023-07-13T00:22:07;101248.75;;;16.22;80.94
48053;BME280;33824;51.600;5.718;2023-07-13T00:24:32;101241.06;;;16.19;81.56
48053;BME280;33824;51.600;5.718;2023-07-13T00:26:58;101259.91;;;16.19;81.78
48053;BME280;33824;51.600;5.718;2023-07-13T00:29:25;101257.81;;;16.15;81.79
48053;BME280;33824;51.600;5.718;2023-07-13T00:31:51;101259.66;;;16.14;81.99
48053;BME280;33824;51.600;5.718;2023-07-13T00:34:17;101257.81;;;16.15;81.90
48053;BME280;33824;51.600;5.718;2023-07-13T00:36:42;101246.63;;;16.11;82.46
48053;BME280;33824;51.600;5.718;2023-07-13T00:39:08;101256.38;;;16.12;82.34
48053;BME280;33824;51.600;5.718;2023-07-13T00:41:34;101257.19;;;16.13;82.51
48053;BME280;33824;51.600;5.718;2023-07-13T00:43:59;101250.16;;;16.12;82.21
48053;BME280;33824;51.600;5.718;2023-07-13T00:46:29;101238.56;;;16.11;81.86
48053;BME280;33824;51.600;5.718;2023-07-13T00:48:58;101249.72;;;16.08;82.28
48053;BME280;33824;51.600;5.718;2023-07-13T00:51:37;101254.25;;;16.01;81.97
48053;BME280;33824;51.600;5.718;2023-07-13T00:54:07;101258.81;;;16.07;82.08
48053;BME280;33824;51.600;5.718;2023-07-13T00:56:36;101254.66;;;16.05;82.89
48053;BME280;33824;51.600;5.718;2023-07-13T00:59:03;101260.47;;;16.08;82.04
48053;BME280;33824;51.600;5.718;2023-07-13T01:01:31;101268.75;;;16.07;81.79
48053;BME280;33824;51.600;5.718;2023-07-13T01:03:56;101271.19;;;16.02;82.35
48053;BME280;33824;51.600;5.718;2023-07-13T01:06:22;101269.72;;;15.99;82.72
48053;BME280;33824;51.600;5.718;2023-07-13T01:08:48;101263.31;;;15.94;83.27
48053;BME280;33824;51.600;5.718;2023-07-13T01:11:19;101266.59;;;15.89;83.44
48053;BME280;33824;51.600;5.718;2023-07-13T01:13:46;101268.88;;;15.92;83.78
48053;BME280;33824;51.600;5.718;2023-07-13T01:16:22;101269.25;;;15.82;84.97
48053;BME280;33824;51.600;5.718;2023-07-13T01:18:49;101267.59;;;15.88;84.56
48053;BME280;33824;51.600;5.718;2023-07-13T01:21:14;101264.50;;;15.91;83.99
48053;BME280;33824;51.600;5.718;2023-07-13T01:23:41;101272.59;;;15.91;83.36
48053;BME280;33824;51.600;5.718;2023-07-13T01:26:07;101273.22;;;15.93;82.86
48053;BME280;33824;51.600;5.718;2023-07-13T01:28:32;101275.09;;;15.93;82.85
48053;BME280;33824;51.600;5.718;2023-07-13T01:31:02;101270.94;;;15.90;83.61
48053;BME280;33824;51.600;5.718;2023-07-13T01:33:28;101272.16;;;15.88;83.37
48053;BME280;33824;51.600;5.718;2023-07-13T01:35:54;101269.69;;;15.86;83.59
48053;BME280;33824;51.600;5.718;2023-07-13T01:38:23;101274.41;;;15.84;83.51
48053;BME280;33824;51.600;5.718;2023-07-13T01:40:50;101266.56;;;15.82;83.09
48053;BME280;33824;51.600;5.718;2023-07-13T01:43:16;101258.88;;;15.79;83.70
48053;BME280;33824;51.600;5.718;2023-07-13T01:45:42;101265.28;;;15.78;84.29
48053;BME280;33824;51.600;5.718;2023-07-13T01:48:09;101270.84;;;15.77;84.35
48053;BME280;33824;51.600;5.718;2023-07-13T01:50:35;101265.88;;;15.74;85.02
48053;BME280;33824;51.600;5.718;2023-07-13T01:53:02;101272.91;;;15.75;85.11
48053;BME280;33824;51.600;5.718;2023-07-13T01:55:28;101265.44;;;15.70;85.64
48053;BME280;33824;51.600;5.718;2023-07-13T01:57:53;101261.69;;;15.71;85.62
48053;BME280;33824;51.600;5.718;2023-07-13T02:00:19;101274.53;;;15.69;86.45
48053;BME280;33824;51.600;5.718;2023-07-13T02:02:44;101281.97;;;15.67;86.48
48053;BME280;33824;51.600;5.718;2023-07-13T02:05:11;101284.84;;;15.66;86.37
48053;BME280;33824;51.600;5.718;2023-07-13T02:07:37;101271.59;;;15.64;86.66
48053;BME280;33824;51.600;5.718;2023-07-13T02:10:06;101281.91;;;15.61;86.87
48053;BME280;33824;51.600;5.718;2023-07-13T02:12:33;101278.38;;;15.60;86.38
48053;BME280;33824;51.600;5.718;2023-07-13T02:14:58;101282.94;;;15.60;86.48
48053;BME280;33824;51.600;5.718;2023-07-13T02:17:25;101282.69;;;15.55;87.64
48053;BME280;33824;51.600;5.718;2023-07-13T02:19:54;101283.72;;;15.54;87.85
48053;BME280;33824;51.600;5.718;2023-07-13T02:22:21;101277.72;;;15.52;87.68
48053;BME280;33824;51.600;5.718;2023-07-13T02:24:47;101278.28;;;15.47;88.04
48053;BME280;33824;51.600;5.718;2023-07-13T02:27:13;101281.78;;;15.48;87.58
48053;BME280;33824;51.600;5.718;2023-07-13T02:29:39;101272.06;;;15.47;87.64
48053;BME280;33824;51.600;5.718;2023-07-13T02:32:04;101278.00;;;15.42;88.26
48053;BME280;33824;51.600;5.718;2023-07-13T02:34:31;101276.75;;;15.38;88.76
48053;BME280;33824;51.600;5.718;2023-07-13T02:36:58;101279.44;;;15.38;88.75
48053;BME280;33824;51.600;5.718;2023-07-13T02:39:24;101276.56;;;15.40;88.65
48053;BME280;33824;51.600;5.718;2023-07-13T02:41:49;101278.59;;;15.37;89.22
48053;BME280;33824;51.600;5.718;2023-07-13T02:44:15;101277.31;;;15.33;89.85
48053;BME280;33824;51.600;5.718;2023-07-13T02:46:41;101281.88;;;15.33;90.14
48053;BME280;33824;51.600;5.718;2023-07-13T02:49:06;101286.22;;;15.34;90.58
48053;BME280;33824;51.600;5.718;2023-07-13T02:51:32;101285.38;;;15.33;90.00
48053;BME280;33824;51.600;5.718;2023-07-13T02:54:03;101290.31;;;15.30;90.52
48053;BME280;33824;51.600;5.718;2023-07-13T02:56:30;101286.59;;;15.31;90.03
48053;BME280;33824;51.600;5.718;2023-07-13T02:58:56;101287.63;;;15.30;90.42
48053;BME280;33824;51.600;5.718;2023-07-13T03:01:22;101286.34;;;15.26;91.49
48053;BME280;33824;51.600;5.718;2023-07-13T03:03:49;101300.38;;;15.21;91.69
48053;BME280;33824;51.600;5.718;2023-07-13T03:06:15;101293.13;;;15.22;91.29
48053;BME280;33824;51.600;5.718;2023-07-13T03:08:42;101293.34;;;15.20;91.25
48053;BME280;33824;51.600;5.718;2023-07-13T03:11:10;101298.06;;;15.18;91.90
48053;BME280;33824;51.600;5.718;2023-07-13T03:13:38;101303.81;;;15.15;92.30
48053;BME280;33824;51.600;5.718;2023-07-13T03:16:04;101301.97;;;15.16;92.46
48053;BME280;33824;51.600;5.718;2023-07-13T03:18:30;101303.81;;;15.15;92.36
48053;BME280;33824;51.600;5.718;2023-07-13T03:20:55;101308.34;;;15.15;92.57
48053;BME280;33824;51.600;5.718;2023-07-13T03:23:22;101297.16;;;15.11;93.66
48053;BME280;33824;51.600;5.718;2023-07-13T03:25:48;101293.06;;;15.15;92.79
48053;BME280;33824;51.600;5.718;2023-07-13T03:28:14;101298.44;;;15.15;93.22
48053;BME280;33824;51.600;5.718;2023-07-13T03:30:40;101304.66;;;15.16;93.27
48053;BME280;33824;51.600;5.718;2023-07-13T03:33:07;101295.59;;;15.17;92.29
48053;BME280;33824;51.600;5.718;2023-07-13T03:35:34;101304.66;;;15.16;92.33
48053;BME280;33824;51.600;5.718;2023-07-13T03:38:00;101313.09;;;15.13;93.80
48053;BME280;33824;51.600;5.718;2023-07-13T03:40:27;101313.09;;;15.13;93.29
48053;BME280;33824;51.600;5.718;2023-07-13T03:42:52;101318.25;;;15.14;93.31
48053;BME280;33824;51.600;5.718;2023-07-13T03:45:18;101314.78;;;15.14;93.61
48053;BME280;33824;51.600;5.718;2023-07-13T03:47:45;101320.59;;;15.17;93.05
48053;BME280;33824;51.600;5.718;2023-07-13T03:50:10;101321.44;;;15.18;93.61
48053;BME280;33824;51.600;5.718;2023-07-13T03:52:36;101328.25;;;15.20;93.28
48053;BME280;33824;51.600;5.718;2023-07-13T03:55:02;101324.28;;;15.16;94.31
48053;BME280;33824;51.600;5.718;2023-07-13T03:57:28;101326.81;;;15.18;95.10
48053;BME280;33824;51.600;5.718;2023-07-13T03:59:53;101332.22;;;15.24;94.60
48053;BME280;33824;51.600;5.718;2023-07-13T04:02:19;101327.75;;;15.31;93.59
48053;BME280;33824;51.600;5.718;2023-07-13T04:04:45;101330.44;;;15.31;94.69
48053;BME280;33824;51.600;5.718;2023-07-13T04:07:11;101333.16;;;15.38;94.34
48053;BME280;33824;51.600;5.718;2023-07-13T04:09:37;101332.19;;;15.46;94.46
48053;BME280;33824;51.600;5.718;2023-07-13T04:12:04;101330.25;;;15.54;93.97
48053;BME280;33824;51.600;5.718;2023-07-13T04:14:29;101332.97;;;15.61;93.45
48053;BME280;33824;51.600;5.718;2023-07-13T04:16:55;101328.81;;;15.58;94.69
48053;BME280;33824;51.600;5.718;2023-07-13T04:19:21;101338.16;;;15.62;94.80
48053;BME280;33824;51.600;5.718;2023-07-13T04:21:47;101338.03;;;15.70;94.56
48053;BME280;33824;51.600;5.718;2023-07-13T04:24:12;101337.50;;;15.81;94.56
48053;BME280;33824;51.600;5.718;2023-07-13T04:26:38;101348.53;;;15.93;93.78
48053;BME280;33824;51.600;5.718;2023-07-13T04:29:04;101331.41;;;16.01;93.61
48053;BME280;33824;51.600;5.718;2023-07-13T04:31:31;101335.38;;;16.05;93.94
48053;BME280;33824;51.600;5.718;2023-07-13T04:33:57;101345.31;;;16.11;94.05
48053;BME280;33824;51.600;5.718;2023-07-13T04:36:24;101344.56;;;16.23;93.37
48053;BME280;33824;51.600;5.718;2023-07-13T04:38:52;101344.38;;;16.25;93.98
48053;BME280;33824;51.600;5.718;2023-07-13T04:41:20;101338.38;;;16.29;93.96
48053;BME280;33824;51.600;5.718;2023-07-13T04:43:46;101350.00;;;16.37;93.70
48053;BME280;33824;51.600;5.718;2023-07-13T04:46:15;101353.97;;;16.41;93.36
48053;BME280;33824;51.600;5.718;2023-07-13T04:48:42;101363.75;;;16.48;93.96
48053;BME280;33824;51.600;5.718;2023-07-13T04:51:09;101360.44;;;16.53;93.72
48053;BME280;33824;51.600;5.718;2023-07-13T04:53:34;101350.38;;;16.61;93.52
48053;BME280;33824;51.600;5.718;2023-07-13T04:56:02;101351.22;;;16.68;93.63
48053;BME280;33824;51.600;5.718;2023-07-13T04:58:27;101355.81;;;16.74;93.48
48053;BME280;33824;51.600;5.718;2023-07-13T05:00:53;101353.75;;;16.76;93.68
48053;BME280;33824;51.600;5.718;2023-07-13T05:03:24;101361.22;;;16.81;94.16
48053;BME280;33824;51.600;5.718;2023-07-13T05:06:16;101368.44;;;16.74;94.80
48053;BME280;33824;51.600;5.718;2023-07-13T05:08:41;101362.72;;;16.97;93.89
48053;BME280;33824;51.600;5.718;2023-07-13T05:11:07;101365.03;;;17.06;93.95
48053;BME280;33824;51.600;5.718;2023-07-13T05:13:32;101366.09;;;17.12;94.07
48053;BME280;33824;51.600;5.718;2023-07-13T05:16:00;101371.47;;;17.18;93.77
48053;BME280;33824;51.600;5.718;2023-07-13T05:18:26;101366.69;;;17.20;94.19
48053;BME280;33824;51.600;5.718;2023-07-13T05:21:02;101371.06;;;17.15;94.31
48053;BME280;33824;51.600;5.718;2023-07-13T05:23:29;101367.53;;;17.27;94.73
48053;BME280;33824;51.600;5.718;2023-07-13T05:25:55;101371.53;;;17.38;94.42
48053;BME280;33824;51.600;5.718;2023-07-13T05:28:21;101378.16;;;17.42;94.79
48053;BME280;33824;51.600;5.718;2023-07-13T05:30:48;101384.81;;;17.46;94.14
48053;BME280;33824;51.600;5.718;2023-07-13T05:33:14;101378.81;;;17.57;94.21
48053;BME280;33824;51.600;5.718;2023-07-13T05:35:39;101385.03;;;17.58;94.61
48053;BME280;33824;51.600;5.718;2023-07-13T05:38:05;101388.34;;;17.66;94.69
48053;BME280;33824;51.600;5.718;2023-07-13T05:40:32;101388.34;;;17.66;94.91
48053;BME280;33824;51.600;5.718;2023-07-13T05:42:57;101394.38;;;17.68;94.75
48053;BME280;33824;51.600;5.718;2023-07-13T05:45:23;101389.59;;;17.77;94.35
48053;BME280;33824;51.600;5.718;2023-07-13T05:47:49;101398.31;;;17.79;94.31
48053;BME280;33824;51.600;5.718;2023-07-13T05:50:14;101391.25;;;17.78;94.44
48053;BME280;33824;51.600;5.718;2023-07-13T05:52:40;101393.75;;;17.86;94.12
48053;BME280;33824;51.600;5.718;2023-07-13T05:55:05;101400.19;;;17.98;93.63
48053;BME280;33824;51.600;5.718;2023-07-13T05:57:31;101395.19;;;18.08;92.85
48053;BME280;33824;51.600;5.718;2023-07-13T05:59:57;101400.59;;;18.02;93.16
48053;BME280;33824;51.600;5.718;2023-07-13T06:02:23;101400.16;;;18.05;92.89
48053;BME280;33824;51.600;5.718;2023-07-13T06:04:48;101407.44;;;18.11;92.45
48053;BME280;33824;51.600;5.718;2023-07-13T06:07:14;101397.66;;;18.03;93.07
48053;BME280;33824;51.600;5.718;2023-07-13T06:09:40;101413.66;;;17.98;93.57
48053;BME280;33824;51.600;5.718;2023-07-13T06:12:06;101415.31;;;18.26;92.62
48053;BME280;33824;51.600;5.718;2023-07-13T06:14:31;101413.81;;;18.36;92.36
48053;BME280;33824;51.600;5.718;2023-07-13T06:16:57;101415.09;;;18.34;92.19
48053;BME280;33824;51.600;5.718;2023-07-13T06:19:22;101425.41;;;18.50;92.38
48053;BME280;33824;51.600;5.718;2023-07-13T06:21:48;101417.00;;;18.84;91.31
48053;BME280;33824;51.600;5.718;2023-07-13T06:24:13;101419.50;;;18.86;91.12
48053;BME280;33824;51.600;5.718;2023-07-13T06:26:39;101430.09;;;18.87;90.10
48053;BME280;33824;51.600;5.718;2023-07-13T06:29:05;101429.13;;;18.75;90.61
48053;BME280;33824;51.600;5.718;2023-07-13T06:31:30;101421.41;;;18.79;90.21
48053;BME280;33824;51.600;5.718;2023-07-13T06:33:56;101420.50;;;18.91;90.38
48053;BME280;33824;51.600;5.718;2023-07-13T06:36:21;101425.06;;;18.97;89.84
48053;BME280;33824;51.600;5.718;2023-07-13T06:38:47;101418.88;;;19.28;89.67
48053;BME280;33824;51.600;5.718;2023-07-13T06:41:13;101417.19;;;19.65;88.67
48053;BME280;33824;51.600;5.718;2023-07-13T06:43:38;101422.09;;;19.75;87.85
48053;BME280;33824;51.600;5.718;2023-07-13T06:46:04;101424.41;;;19.78;86.97
48053;BME280;33824;51.600;5.718;2023-07-13T06:48:30;101415.59;;;19.82;86.99
48053;BME280;33824;51.600;5.718;2023-07-13T06:50:55;101426.28;;;19.77;86.28
48053;BME280;33824;51.600;5.718;2023-07-13T06:53:22;101429.97;;;19.83;86.08
48053;BME280;33824;51.600;5.718;2023-07-13T06:55:48;101437.53;;;19.74;86.81
48053;BME280;33824;51.600;5.718;2023-07-13T06:58:16;101443.34;;;19.78;86.04
48053;BME280;33824;51.600;5.718;2023-07-13T07:00:41;101436.84;;;19.79;86.26
48053;BME280;33824;51.600;5.718;2023-07-13T07:03:07;101445.16;;;19.59;86.08
48053;BME280;33824;51.600;5.718;2023-07-13T07:05:33;101439.19;;;19.75;86.49
48053;BME280;33824;51.600;5.718;2023-07-13T07:07:59;101452.22;;;19.85;85.67
48053;BME280;33824;51.600;5.718;2023-07-13T07:10:25;101445.06;;;19.97;85.61
48053;BME280;33824;51.600;5.718;2023-07-13T07:12:51;101448.81;;;19.96;85.78
48053;BME280;33824;51.600;5.718;2023-07-13T07:15:18;101450.88;;;19.94;84.83
48053;BME280;33824;51.600;5.718;2023-07-13T07:17:44;101447.31;;;20.00;84.99
48053;BME280;33824;51.600;5.718;2023-07-13T07:20:10;101445.47;;;19.94;85.05
48053;BME280;33824;51.600;5.718;2023-07-13T07:22:36;101440.81;;;20.07;84.43
48053;BME280;33824;51.600;5.718;2023-07-13T07:25:01;101451.69;;;20.01;84.44
48053;BME280;33824;51.600;5.718;2023-07-13T07:27:27;101449.13;;;19.81;84.78
48053;BME280;33824;51.600;5.718;2023-07-13T07:29:53;101453.22;;;19.90;84.50
48053;BME280;33824;51.600;5.718;2023-07-13T07:32:20;101456.47;;;19.99;84.62
48053;BME280;33824;51.600;5.718;2023-07-13T07:34:46;101455.44;;;20.00;84.61
48053;BME280;33824;51.600;5.718;2023-07-13T07:37:13;101458.00;;;20.13;84.51
48053;BME280;33824;51.600;5.718;2023-07-13T07:39:39;101452.31;;;20.21;84.24
48053;BME280;33824;51.600;5.718;2023-07-13T07:42:05;101464.78;;;20.29;83.75
48053;BME280;33824;51.600;5.718;2023-07-13T07:44:31;101466.38;;;20.36;83.07
48053;BME280;33824;51.600;5.718;2023-07-13T07:46:57;101460.47;;;20.64;82.44
48053;BME280;33824;51.600;5.718;2023-07-13T07:49:23;101452.50;;;20.87;82.13
48053;BME280;33824;51.600;5.718;2023-07-13T07:51:49;101451.94;;;20.97;81.16
48053;BME280;33824;51.600;5.718;2023-07-13T07:54:16;101463.09;;;21.25;81.10
48053;BME280;33824;51.600;5.718;2023-07-13T07:56:41;101468.56;;;21.37;80.54
48053;BME280;33824;51.600;5.718;2023-07-13T07:59:07;101463.69;;;21.09;80.33
48053;BME280;33824;51.600;5.718;2023-07-13T08:01:33;101463.94;;;21.08;80.34
48053;BME280;33824;51.600;5.718;2023-07-13T08:03:58;101463.09;;;21.25;80.63
48053;BME280;33824;51.600;5.718;2023-07-13T08:06:24;101451.69;;;21.65;79.81
48053;BME280;33824;51.600;5.718;2023-07-13T08:08:50;101459.31;;;21.97;78.74
48053;BME280;33824;51.600;5.718;2023-07-13T08:11:16;101451.41;;;22.08;77.46
48053;BME280;33824;51.600;5.718;2023-07-13T08:13:42;101461.22;;;22.09;77.51
48053;BME280;33824;51.600;5.718;2023-07-13T08:16:08;101461.00;;;22.10;76.30
48053;BME280;33824;51.600;5.718;2023-07-13T08:18:33;101451.28;;;22.49;75.58
48053;BME280;33824;51.600;5.718;2023-07-13T08:21:04;101447.28;;;22.52;74.26
48053;BME280;33824;51.600;5.718;2023-07-13T08:23:29;101448.31;;;22.85;74.87
48053;BME280;33824;51.600;5.718;2023-07-13T08:25:55;101450.19;;;22.97;74.08
48053;BME280;33824;51.600;5.718;2023-07-13T08:28:22;101448.81;;;22.82;73.95
48053;BME280;33824;51.600;5.718;2023-07-13T08:30:48;101446.09;;;22.71;73.50
48053;BME280;33824;51.600;5.718;2023-07-13T08:33:22;101451.28;;;22.37;70.85
48053;BME280;33824;51.600;5.718;2023-07-13T08:35:49;101449.66;;;22.36;73.05
48053;BME280;33824;51.600;5.718;2023-07-13T08:38:15;101450.22;;;22.15;72.98
48053;BME280;33824;51.600;5.718;2023-07-13T08:40:42;101447.97;;;22.00;73.23
48053;BME280;33824;51.600;5.718;2023-07-13T08:43:19;101454.25;;;22.13;72.37
48053;BME280;33824;51.600;5.718;2023-07-13T08:45:48;101446.19;;;22.64;72.25
48053;BME280;33824;51.600;5.718;2023-07-13T08:48:25;101451.97;;;22.79;69.31
48053;BME280;33824;51.600;5.718;2023-07-13T08:51:19;101440.41;;;22.72;68.79
48053;BME280;33824;51.600;5.718;2023-07-13T08:53:52;101442.50;;;23.22;68.48
48053;BME280;33824;51.600;5.718;2023-07-13T08:56:22;101445.53;;;23.09;69.08
48053;BME280;33824;51.600;5.718;2023-07-13T08:58:53;101440.47;;;23.29;68.18
48053;BME280;33824;51.600;5.718;2023-07-13T09:01:53;101443.38;;;22.47;67.20
48053;BME280;33824;51.600;5.718;2023-07-13T09:04:29;101452.72;;;22.75;68.19
48053;BME280;33824;51.600;5.718;2023-07-13T09:07:05;101453.19;;;22.72;67.63
48053;BME280;33824;51.600;5.718;2023-07-13T09:14:51;101454.84;;;22.38;67.61
48053;BME280;33824;51.600;5.718;2023-07-13T09:17:20;101455.44;;;22.05;67.83
48053;BME280;33824;51.600;5.718;2023-07-13T09:19:54;101457.06;;;21.53;69.90
48053;BME280;33824;51.600;5.718;2023-07-13T09:22:24;101453.81;;;21.74;69.92
48053;BME280;33824;51.600;5.718;2023-07-13T09:24:55;101450.94;;;22.22;69.84
48053;BME280;33824;51.600;5.718;2023-07-13T09:27:29;101445.25;;;22.59;67.99
48053;BME280;33824;51.600;5.718;2023-07-13T09:32:43;101454.94;;;21.96;66.28
48053;BME280;33824;51.600;5.718;2023-07-13T09:35:12;101459.72;;;21.71;68.09
48053;BME280;33824;51.600;5.718;2023-07-13T09:37:38;101456.72;;;22.26;68.33
48053;BME280;33824;51.600;5.718;2023-07-13T09:40:11;101445.06;;;22.25;66.79
48053;BME280;33824;51.600;5.718;2023-07-13T09:42:38;101447.72;;;22.60;66.90
48053;BME280;33824;51.600;5.718;2023-07-13T09:45:04;101443.09;;;22.84;65.66
48053;BME280;33824;51.600;5.718;2023-07-13T09:47:39;101454.50;;;22.69;64.88
48053;BME280;33824;51.600;5.718;2023-07-13T09:50:14;101451.41;;;22.54;65.27
48053;BME280;33824;51.600;5.718;2023-07-13T09:52:49;101453.53;;;22.75;66.84
48053;BME280;33824;51.600;5.718;2023-07-13T09:57:49;101451.59;;;22.87;65.29
48053;BME280;33824;51.600;5.718;2023-07-13T10:00:26;101446.81;;;23.06;64.07
48053;BME280;33824;51.600;5.718;2023-07-13T10:05:37;101438.69;;;23.79;62.89
48053;BME280;33824;51.600;5.718;2023-07-13T10:08:03;101447.19;;;24.16;61.41
48053;BME280;33824;51.600;5.718;2023-07-13T10:10:28;101445.94;;;24.41;61.62
48053;BME280;33824;51.600;5.718;2023-07-13T10:12:54;101442.47;;;24.45;60.40
48053;BME280;33824;51.600;5.718;2023-07-13T10:15:25;101442.09;;;24.58;59.68
48053;BME280;33824;51.600;5.718;2023-07-13T10:17:53;101441.81;;;24.98;59.07
48053;BME280;33824;51.600;5.718;2023-07-13T10:20:20;101442.31;;;25.17;58.16
48053;BME280;33824;51.600;5.718;2023-07-13T10:22:59;101435.59;;;25.03;56.50
48053;BME280;33824;51.600;5.718;2023-07-13T10:25:32;101450.94;;;24.27;55.33
48053;BME280;33824;51.600;5.718;2023-07-13T10:30:47;101438.91;;;25.05;56.96
48053;BME280;33824;51.600;5.718;2023-07-13T10:33:14;101443.81;;;24.64;57.22
48053;BME280;33824;51.600;5.718;2023-07-13T10:35:42;101450.16;;;24.31;54.98
48053;BME280;33824;51.600;5.718;2023-07-13T10:38:18;101448.91;;;23.72;56.67
48053;BME280;33824;51.600;5.718;2023-07-13T10:41:11;101439.34;;;23.86;56.69
48053;BME280;33824;51.600;5.718;2023-07-13T10:43:41;101444.72;;;23.98;58.65
48053;BME280;33824;51.600;5.718;2023-07-13T10:46:11;101441.06;;;24.09;58.08
48053;BME280;33824;51.600;5.718;2023-07-13T10:48:40;101444.06;;;24.63;56.62
48053;BME280;33824;51.600;5.718;2023-07-13T10:51:09;101448.47;;;24.47;56.44
48053;BME280;33824;51.600;5.718;2023-07-13T10:53:37;101446.03;;;24.29;58.09
48053;BME280;33824;51.600;5.718;2023-07-13T10:56:22;101451.13;;;24.09;57.57
48053;BME280;33824;51.600;5.718;2023-07-13T11:01:55;101459.56;;;23.90;57.75
48053;BME280;33824;51.600;5.718;2023-07-13T11:04:22;101460.72;;;24.11;57.88
48053;BME280;33824;51.600;5.718;2023-07-13T11:06:56;101458.94;;;24.00;56.58
48053;BME280;33824;51.600;5.718;2023-07-13T11:09:39;101472.72;;;23.49;56.81
48053;BME280;33824;51.600;5.718;2023-07-13T11:12:09;101477.88;;;23.22;57.83
48053;BME280;33824;51.600;5.718;2023-07-13T11:30:46;101489.78;;;24.06;61.65
48053;BME280;33824;51.600;5.718;2023-07-13T11:33:24;101491.63;;;24.33;58.32
48053;BME280;33824;51.600;5.718;2023-07-13T11:38:27;101479.47;;;24.58;57.66
48053;BME280;33824;51.600;5.718;2023-07-13T11:40:54;101475.00;;;24.90;57.36
48053;BME280;33824;51.600;5.718;2023-07-13T11:43:21;101474.50;;;25.42;57.28
48053;BME280;33824;51.600;5.718;2023-07-13T11:45:49;101480.28;;;25.67;56.89
48053;BME280;33824;51.600;5.718;2023-07-13T11:50:54;101485.53;;;25.25;55.41
48053;BME280;33824;51.600;5.718;2023-07-13T11:53:20;101474.28;;;25.00;56.08
48053;BME280;33824;51.600;5.718;2023-07-13T11:55:45;101495.31;;;24.61;55.24
48053;BME280;33824;51.600;5.718;2023-07-13T11:58:14;101483.09;;;24.47;56.66
48053;BME280;33824;51.600;5.718;2023-07-13T12:00:42;101490.00;;;24.71;56.92
48053;BME280;33824;51.600;5.718;2023-07-13T12:03:07;101483.63;;;25.04;56.87
48053;BME280;33824;51.600;5.718;2023-07-13T12:05:34;101486.50;;;25.14;57.48
48053;BME280;33824;51.600;5.718;2023-07-13T12:08:08;101482.53;;;24.83;58.13
48053;BME280;33824;51.600;5.718;2023-07-13T12:10:36;101490.75;;;24.66;58.26
48053;BME280;33824;51.600;5.718;2023-07-13T12:13:04;101488.81;;;24.45;59.21
48053;BME280;33824;51.600;5.718;2023-07-13T12:15:40;101489.34;;;23.97;61.00
48053;BME280;33824;51.600;5.718;2023-07-13T12:18:14;101491.09;;;24.03;60.67
48053;BME280;33824;51.600;5.718;2023-07-13T12:20:40;101490.00;;;23.71;62.20
48053;BME280;33824;51.600;5.718;2023-07-13T12:23:25;101495.69;;;23.01;65.79
48053;BME280;33824;51.600;5.718;2023-07-13T12:25:54;101494.31;;;22.64;67.49
48053;BME280;33824;51.600;5.718;2023-07-13T12:28:48;101498.22;;;22.33;67.90
48053;BME280;33824;51.600;5.718;2023-07-13T12:34:01;101485.28;;;21.93;69.39
48053;BME280;33824;51.600;5.718;2023-07-13T12:36:33;101488.41;;;21.79;71.21
48053;BME280;33824;51.600;5.718;2023-07-13T12:39:04;101497.38;;;21.79;72.15
48053;BME280;33824;51.600;5.718;2023-07-13T12:41:32;101490.28;;;22.20;71.57
48053;BME280;33824;51.600;5.718;2023-07-13T12:43:58;101493.84;;;22.43;71.87
48053;BME280;33824;51.600;5.718;2023-07-13T12:46:26;101490.81;;;23.03;72.62
48053;BME280;33824;51.600;5.718;2023-07-13T12:48:54;101481.84;;;23.42;70.82
48053;BME280;33824;51.600;5.718;2023-07-13T12:51:27;101494.41;;;23.44;70.45
48053;BME280;33824;51.600;5.718;2023-07-13T12:54:07;101485.88;;;23.68;69.91
48053;BME280;33824;51.600;5.718;2023-07-13T12:56:36;101482.00;;;23.98;67.24
48053;BME280;33824;51.600;5.718;2023-07-13T12:59:03;101481.09;;;24.09;67.17
48053;BME280;33824;51.600;5.718;2023-07-13T13:01:34;101477.16;;;24.16;66.20
48053;BME280;33824;51.600;5.718;2023-07-13T13:04:03;101481.09;;;24.09;65.00
48053;BME280;33824;51.600;5.718;2023-07-13T13:06:32;101474.03;;;24.41;65.70
48053;BME280;33824;51.600;5.718;2023-07-13T13:09:00;101475.59;;;24.75;63.79
48053;BME280;33824;51.600;5.718;2023-07-13T13:11:28;101472.25;;;24.52;61.26
48053;BME280;33824;51.600;5.718;2023-07-13T13:13:54;101479.78;;;24.61;61.95
48053;BME280;33824;51.600;5.718;2023-07-13T13:18:53;101479.56;;;25.28;61.83
48053;BME280;33824;51.600;5.718;2023-07-13T13:21:21;101476.03;;;25.54;62.18
48053;BME280;33824;51.600;5.718;2023-07-13T13:23:46;101482.72;;;25.68;60.17
48053;BME280;33824;51.600;5.718;2023-07-13T13:26:14;101479.97;;;25.42;58.06
48053;BME280;33824;51.600;5.718;2023-07-13T13:28:43;101483.63;;;25.25;55.95
48053;BME280;33824;51.600;5.718;2023-07-13T13:31:11;101484.09;;;24.96;54.14
48053;BME280;33824;51.600;5.718;2023-07-13T13:33:38;101497.31;;;24.49;53.25
48053;BME280;33824;51.600;5.718;2023-07-13T13:36:22;101485.56;;;23.81;54.32
48053;BME280;33824;51.600;5.718;2023-07-13T13:38:49;101492.09;;;23.97;56.98
48053;BME280;33824;51.600;5.718;2023-07-13T13:41:16;101491.94;;;24.04;58.41